createdAt,value
2018-08-16T00:01:13.010Z,19.04
2018-08-16T00:03:43.765Z,19.01
2018-08-16T00:06:14.609Z,19.00
2018-08-16T00:08:45.473Z,19.00
2018-08-16T00:11:16.386Z,18.98
2018-08-16T00:13:47.086Z,18.91
2018-08-16T00:16:17.937Z,18.86
2018-08-16T00:18:48.772Z,18.83
2018-08-16T00:21:19.570Z,18.77
2018-08-16T00:23:50.333Z,18.74
2018-08-16T00:26:21.047Z,18.68
2018-08-16T00:28:51.799Z,18.64
2018-08-16T00:31:22.524Z,18.64
2018-08-16T00:33:53.427Z,18.63
2018-08-16T00:36:24.101Z,18.59
2018-08-16T00:38:54.813Z,18.57
2018-08-16T00:41:25.608Z,18.51
2018-08-16T00:43:56.368Z,18.49
2018-08-16T00:46:27.081Z,18.48
2018-08-16T00:48:57.846Z,18.47
2018-08-16T00:51:28.628Z,18.43
2018-08-16T00:53:59.415Z,18.39
2018-08-16T00:56:30.151Z,18.35
2018-08-16T00:59:00.925Z,18.33
2018-08-16T01:01:31.839Z,18.33
2018-08-16T01:04:02.604Z,18.34
2018-08-16T01:06:33.365Z,18.32
2018-08-16T01:09:05.225Z,18.28
2018-08-16T01:11:35.931Z,18.24
2018-08-16T01:14:08.373Z,18.21
2018-08-16T01:16:39.211Z,18.22
2018-08-16T01:19:10.030Z,18.19
2018-08-16T01:21:40.870Z,18.17
2018-08-16T01:24:11.629Z,18.11
2018-08-16T01:26:42.401Z,18.09
2018-08-16T01:29:13.212Z,18.09
2018-08-16T01:31:44.282Z,18.07
2018-08-16T01:34:15.108Z,18.04
2018-08-16T01:36:45.822Z,18.01
2018-08-16T01:39:16.619Z,18.06
2018-08-16T01:41:47.272Z,18.04
2018-08-16T01:44:18.159Z,18.00
2018-08-16T01:46:48.833Z,17.95
2018-08-16T01:49:30.047Z,17.90
2018-08-16T01:52:01.094Z,17.88
2018-08-16T01:54:32.057Z,17.83
2018-08-16T01:57:03.444Z,17.81
2018-08-16T01:59:34.151Z,17.90
2018-08-16T02:02:04.998Z,17.88
2018-08-16T02:04:35.764Z,17.89
2018-08-16T02:07:06.569Z,17.86
2018-08-16T02:09:37.411Z,17.82
2018-08-16T02:12:08.450Z,17.75
2018-08-16T02:14:39.181Z,17.84
2018-08-16T02:17:09.921Z,17.78
2018-08-16T02:19:40.707Z,17.66
2018-08-16T02:22:11.489Z,17.68
2018-08-16T02:24:42.176Z,17.72
2018-08-16T02:27:12.979Z,17.65
2018-08-16T02:29:43.733Z,17.65
2018-08-16T02:32:14.493Z,17.72
2018-08-16T02:34:45.266Z,17.56
2018-08-16T02:37:16.156Z,17.67
2018-08-16T02:39:46.888Z,17.56
2018-08-16T02:42:17.878Z,17.49
2018-08-16T02:44:48.655Z,17.48
2018-08-16T02:47:19.561Z,17.44
2018-08-16T02:49:50.298Z,17.43
2018-08-16T02:52:21.137Z,17.37
2018-08-16T02:54:51.898Z,17.33
2018-08-16T02:57:22.676Z,17.33
2018-08-16T02:59:53.400Z,17.31
2018-08-16T03:02:24.147Z,17.36
2018-08-16T03:04:54.945Z,17.29
2018-08-16T03:07:25.766Z,17.30
2018-08-16T03:09:56.462Z,17.27
2018-08-16T03:12:27.216Z,17.28
2018-08-16T03:14:57.895Z,17.26
2018-08-16T03:17:28.661Z,17.24
2018-08-16T03:19:59.344Z,17.16
2018-08-16T03:22:30.032Z,17.15
2018-08-16T03:25:00.748Z,17.18
2018-08-16T03:27:31.455Z,17.19
2018-08-16T03:30:02.219Z,17.11
2018-08-16T03:32:32.922Z,17.07
2018-08-16T03:35:03.740Z,17.07
2018-08-16T03:37:34.492Z,17.03
2018-08-16T03:40:06.024Z,17.08
2018-08-16T03:42:36.888Z,17.13
2018-08-16T03:45:08.364Z,17.17
2018-08-16T03:47:39.276Z,17.12
2018-08-16T03:50:10.162Z,17.09
2018-08-16T03:52:40.873Z,17.07
2018-08-16T03:55:11.602Z,17.08
2018-08-16T03:57:42.415Z,17.02
2018-08-16T04:00:13.143Z,16.99
2018-08-16T04:02:43.832Z,16.99
2018-08-16T04:05:14.559Z,16.90
2018-08-16T04:07:45.309Z,16.85
2018-08-16T04:10:16.129Z,16.81
2018-08-16T04:12:46.949Z,16.76
2018-08-16T04:15:17.669Z,16.76
2018-08-16T04:17:48.467Z,16.73
2018-08-16T04:20:19.217Z,16.75
2018-08-16T04:22:50.021Z,16.72
2018-08-16T04:25:20.807Z,16.65
2018-08-16T04:27:51.663Z,16.67
2018-08-16T04:30:22.503Z,16.65
2018-08-16T04:32:53.248Z,16.63
2018-08-16T04:35:24.047Z,16.66
2018-08-16T04:37:54.882Z,16.70
2018-08-16T04:40:25.725Z,16.67
2018-08-16T04:42:56.491Z,16.66
2018-08-16T04:45:27.326Z,16.68
2018-08-16T04:47:58.112Z,16.69
2018-08-16T04:50:28.923Z,16.65
2018-08-16T04:52:59.660Z,16.69
2018-08-16T04:55:30.344Z,16.71
2018-08-16T04:58:01.031Z,16.72
2018-08-16T05:00:31.758Z,16.77
2018-08-16T05:03:02.436Z,16.82
2018-08-16T05:05:33.090Z,16.84
2018-08-16T05:08:03.940Z,16.85
2018-08-16T05:10:34.723Z,16.92
2018-08-16T05:13:05.553Z,16.98
2018-08-16T05:15:36.371Z,17.03
2018-08-16T05:18:07.517Z,17.10
2018-08-16T05:20:38.243Z,17.10
2018-08-16T05:23:09.032Z,17.16
2018-08-16T05:25:39.791Z,17.25
2018-08-16T05:28:10.653Z,17.35
2018-08-16T05:30:41.404Z,17.41
2018-08-16T05:33:12.157Z,17.48
2018-08-16T05:35:42.933Z,17.57
2018-08-16T05:38:13.672Z,17.70
2018-08-16T05:40:44.478Z,17.75
2018-08-16T05:43:15.374Z,17.91
2018-08-16T05:45:46.148Z,17.97
2018-08-16T05:48:16.964Z,18.09
2018-08-16T05:50:47.950Z,18.25
2018-08-16T05:53:18.782Z,18.28
2018-08-16T05:55:49.675Z,18.38
2018-08-16T05:58:20.515Z,18.40
2018-08-16T06:00:51.321Z,18.59
2018-08-16T06:03:22.243Z,18.72
2018-08-16T06:05:53.076Z,18.79
2018-08-16T06:08:23.955Z,18.87
2018-08-16T06:10:54.848Z,18.91
2018-08-16T06:13:25.873Z,18.96
2018-08-16T06:15:56.720Z,19.01
2018-08-16T06:18:27.463Z,19.07
2018-08-16T06:20:58.164Z,19.23
2018-08-16T06:23:28.832Z,19.30
2018-08-16T06:25:59.549Z,19.32
2018-08-16T06:28:30.354Z,19.39
2018-08-16T06:31:01.169Z,19.55
2018-08-16T06:33:32.206Z,19.67
2018-08-16T06:36:02.872Z,19.76
2018-08-16T06:38:33.664Z,19.87
2018-08-16T06:41:04.430Z,20.00
2018-08-16T06:43:35.164Z,20.04
2018-08-16T06:46:05.894Z,20.13
2018-08-16T06:48:36.599Z,20.21
2018-08-16T06:51:07.372Z,20.21
2018-08-16T06:53:38.100Z,20.26
2018-08-16T06:56:08.843Z,20.41
2018-08-16T06:58:39.591Z,20.47
2018-08-16T07:01:10.547Z,20.61
2018-08-16T07:03:41.322Z,20.73
2018-08-16T07:06:12.104Z,20.81
2018-08-16T07:08:42.890Z,20.90
2018-08-16T07:11:13.600Z,21.01
2018-08-16T07:13:44.253Z,21.16
2018-08-16T07:16:14.940Z,21.22
2018-08-16T07:18:45.725Z,21.31
2018-08-16T07:21:16.438Z,21.42
2018-08-16T07:23:47.040Z,21.58
2018-08-16T07:26:23.486Z,21.79
2018-08-16T07:28:54.089Z,21.94
2018-08-16T07:31:24.865Z,22.15
2018-08-16T07:33:55.549Z,22.35
2018-08-16T07:36:26.317Z,22.42
2018-08-16T07:38:57.115Z,22.44
2018-08-16T07:41:28.352Z,22.51
2018-08-16T07:44:00.169Z,22.61
2018-08-16T07:46:30.901Z,22.73
2018-08-16T07:49:01.541Z,22.62
2018-08-16T07:51:32.409Z,22.73
2018-08-16T07:54:02.920Z,22.84
2018-08-16T07:56:33.529Z,23.05
2018-08-16T07:59:04.368Z,23.07
2018-08-16T08:01:35.075Z,23.19
2018-08-16T08:04:05.875Z,23.28
2018-08-16T08:06:39.522Z,23.04
2018-08-16T08:09:10.934Z,23.19
2018-08-16T08:11:41.475Z,23.30
2018-08-16T08:14:12.184Z,23.47
2018-08-16T08:16:43.101Z,23.38
2018-08-16T08:19:13.768Z,23.56
2018-08-16T08:21:44.490Z,23.38
2018-08-16T08:24:15.231Z,23.29
2018-08-16T08:26:45.938Z,23.43
2018-08-16T08:29:16.581Z,23.47
2018-08-16T08:31:47.524Z,23.52
2018-08-16T08:34:18.280Z,23.40
2018-08-16T08:37:05.811Z,23.60
2018-08-16T08:39:36.525Z,23.54
2018-08-16T08:42:07.180Z,23.52
2018-08-16T08:44:37.967Z,23.79
2018-08-16T08:47:08.726Z,24.03
2018-08-16T08:49:39.429Z,24.27
2018-08-16T08:52:10.133Z,24.46
2018-08-16T08:54:58.166Z,24.57
2018-08-16T08:57:45.563Z,24.68
2018-08-16T09:00:16.348Z,25.35
2018-08-16T09:02:47.073Z,25.66
2018-08-16T09:05:17.760Z,26.13
2018-08-16T09:07:48.445Z,26.46
2018-08-16T09:11:05.435Z,26.64
2018-08-16T09:13:53.901Z,26.88
2018-08-16T09:16:31.036Z,26.78
2018-08-16T09:19:01.965Z,26.56
2018-08-16T09:21:33.307Z,26.60
2018-08-16T09:24:04.135Z,27.00
2018-08-16T09:26:43.111Z,26.95
2018-08-16T09:30:40.087Z,26.36
2018-08-16T09:33:27.476Z,26.46
2018-08-16T09:35:58.166Z,26.48
2018-08-16T09:38:28.884Z,26.48
2018-08-16T09:40:59.638Z,26.84
2018-08-16T09:43:30.335Z,26.85
2018-08-16T09:47:16.543Z,26.86
2018-08-16T09:49:50.318Z,26.71
2018-08-16T09:52:21.872Z,26.82
2018-08-16T09:54:52.637Z,26.48
2018-08-16T09:57:23.365Z,26.75
2018-08-16T09:59:54.024Z,27.05
2018-08-16T10:02:24.717Z,26.77
2018-08-16T10:04:55.391Z,27.12
2018-08-16T10:07:26.079Z,27.18
2018-08-16T10:09:56.718Z,27.55
2018-08-16T10:12:27.522Z,27.57
2018-08-16T10:14:58.329Z,27.39
2018-08-16T10:17:29.132Z,27.06
2018-08-16T10:19:59.836Z,27.42
2018-08-16T10:22:30.492Z,27.55
2018-08-16T10:25:01.239Z,27.59
2018-08-16T10:27:32.008Z,27.43
2018-08-16T10:30:02.749Z,27.55
2018-08-16T10:32:33.506Z,27.91
2018-08-16T10:35:04.761Z,28.25
2018-08-16T10:37:36.037Z,27.86
2018-08-16T10:40:06.810Z,28.05
2018-08-16T10:42:38.768Z,27.94
2018-08-16T10:45:09.422Z,27.39
2018-08-16T10:47:40.190Z,27.53
2018-08-16T10:50:11.068Z,27.90
2018-08-16T10:52:41.962Z,28.23
2018-08-16T10:55:12.717Z,28.70
2018-08-16T10:57:43.473Z,29.25
2018-08-16T11:00:14.308Z,29.68
2018-08-16T11:02:45.136Z,29.62
2018-08-16T11:05:16.086Z,29.71
2018-08-16T11:07:46.844Z,29.41
2018-08-16T11:10:17.667Z,29.81
2018-08-16T11:12:48.351Z,30.00
2018-08-16T11:15:19.164Z,30.27
2018-08-16T11:17:50.002Z,29.85
2018-08-16T11:20:20.702Z,29.31
2018-08-16T11:22:51.384Z,29.16
2018-08-16T11:25:22.186Z,29.29
2018-08-16T11:27:53.892Z,29.79
2018-08-16T11:30:24.648Z,30.40
2018-08-16T11:32:55.709Z,30.67
2018-08-16T11:35:26.432Z,30.16
2018-08-16T11:37:57.721Z,30.63
2018-08-16T11:40:28.356Z,30.48
2018-08-16T11:43:00.021Z,30.31
2018-08-16T11:45:30.729Z,29.99
2018-08-16T11:48:01.424Z,29.90
2018-08-16T11:50:32.191Z,29.84
2018-08-16T11:53:02.928Z,30.15
2018-08-16T11:55:33.605Z,30.38
2018-08-16T11:58:04.277Z,30.34
2018-08-16T12:00:35.019Z,30.01
2018-08-16T12:03:06.207Z,30.22
2018-08-16T12:05:36.924Z,30.57
2018-08-16T12:08:07.720Z,30.58
2018-08-16T12:10:38.524Z,30.56
2018-08-16T12:13:09.344Z,30.22
2018-08-16T12:15:40.061Z,30.19
2018-08-16T12:18:11.085Z,30.52
2018-08-16T12:20:41.808Z,30.41
2018-08-16T12:23:13.514Z,30.37
2018-08-16T12:25:44.289Z,30.37
2018-08-16T12:28:15.711Z,29.88
2018-08-16T12:30:46.725Z,29.48
2018-08-16T12:33:17.475Z,29.51
2018-08-16T12:35:48.244Z,29.96
2018-08-16T12:38:18.909Z,29.85
2018-08-16T12:40:52.341Z,30.23
2018-08-16T12:43:26.568Z,30.28
2018-08-16T12:45:59.099Z,30.25
2018-08-16T12:48:29.881Z,30.49
2018-08-16T12:51:00.568Z,30.73
2018-08-16T12:53:31.390Z,30.95
2018-08-16T12:56:02.132Z,30.86
2018-08-16T12:58:32.989Z,30.95
2018-08-16T13:01:03.711Z,31.33
2018-08-16T13:03:34.415Z,31.79
2018-08-16T13:06:05.257Z,31.84
2018-08-16T13:08:35.988Z,31.96
2018-08-16T13:11:07.300Z,32.05
2018-08-16T13:13:38.103Z,32.10
2018-08-16T13:16:08.821Z,32.02
2018-08-16T13:18:39.640Z,32.19
2018-08-16T13:21:10.773Z,32.28
2018-08-16T13:23:42.391Z,32.04
2018-08-16T13:26:15.418Z,32.04
2018-08-16T13:28:46.164Z,31.54
2018-08-16T13:31:17.530Z,31.26
2018-08-16T13:33:48.388Z,31.46
2018-08-16T13:36:19.105Z,31.63
2018-08-16T13:38:49.926Z,31.93
2018-08-16T13:41:21.446Z,32.46
2018-08-16T13:43:51.368Z,32.13
2018-08-16T13:46:22.156Z,32.19
2018-08-16T13:48:52.992Z,32.52
2018-08-16T13:51:23.652Z,32.71
2018-08-16T13:53:54.401Z,32.68
2018-08-16T13:56:25.164Z,32.82
2018-08-16T13:58:56.012Z,32.63
2018-08-16T14:01:26.729Z,32.78
2018-08-16T14:03:57.635Z,32.91
2018-08-16T14:06:28.382Z,32.97
2018-08-16T14:08:59.045Z,33.12
2018-08-16T14:11:29.698Z,32.26
2018-08-16T14:14:19.427Z,32.28
2018-08-16T14:16:55.431Z,32.68
2018-08-16T14:19:26.172Z,32.89
2018-08-16T14:21:56.934Z,32.82
2018-08-16T14:24:27.675Z,32.98
2018-08-16T14:26:58.404Z,33.11
2018-08-16T14:29:29.345Z,33.22
2018-08-16T14:32:00.209Z,33.16
2018-08-16T14:34:30.949Z,33.24
2018-08-16T14:37:01.672Z,33.33
2018-08-16T14:39:32.496Z,33.28
2018-08-16T14:42:03.374Z,32.88
2018-08-16T14:44:34.226Z,32.85
2018-08-16T14:47:05.149Z,32.84
2018-08-16T14:49:35.865Z,32.91
2018-08-16T14:52:06.711Z,32.62
2018-08-16T14:54:37.416Z,32.48
2018-08-16T14:57:08.857Z,31.99
2018-08-16T14:59:39.613Z,31.64
2018-08-16T15:02:10.357Z,31.48
2018-08-16T15:04:41.064Z,31.43
2018-08-16T15:07:11.761Z,31.49
2018-08-16T15:09:42.435Z,31.53
2018-08-16T15:12:13.266Z,31.58
2018-08-16T15:14:44.269Z,31.69
2018-08-16T15:17:16.289Z,31.63
2018-08-16T15:19:47.070Z,31.79
2018-08-16T15:22:18.448Z,31.98
2018-08-16T15:24:49.304Z,31.89
2018-08-16T15:27:19.957Z,31.73
2018-08-16T15:29:50.833Z,31.62
2018-08-16T15:32:21.554Z,31.62
2018-08-16T15:34:52.790Z,31.62
2018-08-16T15:37:23.864Z,31.29
2018-08-16T15:39:54.591Z,31.38
2018-08-16T15:42:26.230Z,31.49
2018-08-16T15:44:56.934Z,31.59
2018-08-16T15:47:27.698Z,31.42
2018-08-16T15:49:58.459Z,30.98
2018-08-16T15:52:29.151Z,30.84
2018-08-16T15:54:59.797Z,30.71
2018-08-16T15:57:30.505Z,30.51
2018-08-16T16:00:02.058Z,30.46
2018-08-16T16:02:34.315Z,30.58
2018-08-16T16:05:05.079Z,30.74
2018-08-16T16:07:35.825Z,30.86
2018-08-16T16:10:07.208Z,30.48
2018-08-16T16:12:37.911Z,30.32
2018-08-16T16:15:10.469Z,30.35
2018-08-16T16:17:41.188Z,30.14
2018-08-16T16:20:11.900Z,30.00
2018-08-16T16:22:42.618Z,30.00
2018-08-16T16:25:13.287Z,29.97
2018-08-16T16:27:43.973Z,29.79
2018-08-16T16:30:15.751Z,29.63
2018-08-16T16:32:46.453Z,29.28
2018-08-16T16:35:17.339Z,29.01
2018-08-16T16:37:48.018Z,28.90
2018-08-16T16:40:18.730Z,28.95
2018-08-16T16:42:49.513Z,29.01
2018-08-16T16:45:20.189Z,29.01
2018-08-16T16:47:50.959Z,29.06
2018-08-16T16:50:21.654Z,29.01
2018-08-16T16:52:52.454Z,28.82
2018-08-16T16:55:23.118Z,28.74
2018-08-16T16:57:53.846Z,28.59
2018-08-16T17:00:25.486Z,28.56
2018-08-16T17:02:56.162Z,28.48
2018-08-16T17:05:32.628Z,28.46
2018-08-16T17:08:03.469Z,28.41
2018-08-16T17:10:34.367Z,28.37
2018-08-16T17:13:05.325Z,28.19
2018-08-16T17:15:36.106Z,28.09
2018-08-16T17:18:10.070Z,28.05
2018-08-16T17:20:41.123Z,28.00
2018-08-16T17:23:12.006Z,27.93
2018-08-16T17:25:42.917Z,27.89
2018-08-16T17:28:14.321Z,27.86
2018-08-16T17:30:45.167Z,27.81
2018-08-16T17:33:16.017Z,27.79
2018-08-16T17:35:46.790Z,27.71
2018-08-16T17:38:17.614Z,27.68
2018-08-16T17:40:49.380Z,27.63
2018-08-16T17:43:30.053Z,27.55
2018-08-16T17:46:07.678Z,27.49
2018-08-16T17:48:38.840Z,27.40
2018-08-16T17:51:09.662Z,27.32
2018-08-16T17:53:40.632Z,27.25
2018-08-16T17:56:11.510Z,27.20
2018-08-16T17:58:42.352Z,27.08
2018-08-16T18:01:13.191Z,26.98
2018-08-16T18:03:44.683Z,26.91
2018-08-16T18:06:15.593Z,26.82
2018-08-16T18:08:46.400Z,26.77
2018-08-16T18:11:22.451Z,26.71
2018-08-16T18:13:53.470Z,26.62
2018-08-16T18:16:24.305Z,26.54
2018-08-16T18:18:55.308Z,26.42
2018-08-16T18:21:26.455Z,26.25
2018-08-16T18:23:57.385Z,26.09
2018-08-16T18:26:28.633Z,25.96
2018-08-16T18:28:59.459Z,25.85
2018-08-16T18:31:30.304Z,25.78
2018-08-16T18:34:01.184Z,25.66
2018-08-16T18:36:31.924Z,25.54
2018-08-16T18:39:02.609Z,25.46
2018-08-16T18:41:33.273Z,25.45
2018-08-16T18:44:04.037Z,25.39
2018-08-16T18:46:34.828Z,25.22
2018-08-16T18:49:05.540Z,25.10
2018-08-16T18:51:36.327Z,24.99
2018-08-16T18:54:07.070Z,24.93
2018-08-16T18:56:37.780Z,24.83
2018-08-16T18:59:08.516Z,24.76
2018-08-16T19:01:39.270Z,24.67
2018-08-16T19:04:10.124Z,24.62
2018-08-16T19:06:40.799Z,24.54
2018-08-16T19:09:11.586Z,24.46
2018-08-16T19:11:42.309Z,24.38
2018-08-16T19:14:13.118Z,24.36
2018-08-16T19:16:43.815Z,24.21
2018-08-16T19:19:14.590Z,24.12
2018-08-16T19:21:45.449Z,24.09
2018-08-16T19:24:16.290Z,23.98
2018-08-16T19:26:47.205Z,23.99
2018-08-16T19:29:17.937Z,23.89
2018-08-16T19:31:48.857Z,23.88
2018-08-16T19:34:19.661Z,23.81
2018-08-16T19:36:50.574Z,23.72
2018-08-16T19:39:21.300Z,23.67
2018-08-16T19:41:52.163Z,23.63
2018-08-16T19:44:22.969Z,23.59
2018-08-16T19:46:53.803Z,23.51
2018-08-16T19:49:24.616Z,23.43
2018-08-16T19:51:55.980Z,23.43
2018-08-16T19:54:26.682Z,23.38
2018-08-16T19:56:57.558Z,23.32
2018-08-16T19:59:28.336Z,23.30
2018-08-16T20:01:59.858Z,23.23
2018-08-16T20:04:31.919Z,23.18
2018-08-16T20:07:03.413Z,23.20
2018-08-16T20:09:34.223Z,23.10
2018-08-16T20:12:05.173Z,23.03
2018-08-16T20:14:35.884Z,23.00
2018-08-16T20:17:06.749Z,22.98
2018-08-16T20:19:37.567Z,22.94
2018-08-16T20:22:15.887Z,22.93
2018-08-16T20:24:47.325Z,22.86
2018-08-16T20:27:18.843Z,22.78
2018-08-16T20:29:49.627Z,22.74
2018-08-16T20:32:20.382Z,22.67
2018-08-16T20:34:51.092Z,22.63
2018-08-16T20:37:21.812Z,22.58
2018-08-16T20:39:52.655Z,22.53
2018-08-16T20:42:23.404Z,22.50
2018-08-16T20:44:54.129Z,22.47
2018-08-16T20:47:24.927Z,22.55
2018-08-16T20:49:55.696Z,22.49
2018-08-16T20:52:26.580Z,22.42
2018-08-16T20:54:57.272Z,22.33
2018-08-16T20:57:27.981Z,22.27
2018-08-16T20:59:58.648Z,22.21
2018-08-16T21:02:29.416Z,22.15
2018-08-16T21:05:00.083Z,22.11
2018-08-16T21:07:30.866Z,22.06
2018-08-16T21:10:01.614Z,22.03
2018-08-16T21:12:32.319Z,21.97
2018-08-16T21:15:03.066Z,21.95
2018-08-16T21:17:33.744Z,21.88
2018-08-16T21:20:04.981Z,21.85
2018-08-16T21:22:35.675Z,21.79
2018-08-16T21:25:07.537Z,21.79
2018-08-16T21:27:38.311Z,21.77
2018-08-16T21:30:09.058Z,21.72
2018-08-16T21:32:39.773Z,21.65
2018-08-16T21:35:10.557Z,21.59
2018-08-16T21:37:41.310Z,21.53
2018-08-16T21:40:12.060Z,21.47
2018-08-16T21:42:42.771Z,21.51
2018-08-16T21:45:13.485Z,21.46
2018-08-16T21:47:44.194Z,21.45
2018-08-16T21:50:15.010Z,21.46
2018-08-16T21:52:45.746Z,21.40
2018-08-16T21:55:16.475Z,21.31
2018-08-16T21:57:47.183Z,21.22
2018-08-16T22:00:52.883Z,21.19
2018-08-16T22:03:27.634Z,21.15
2018-08-16T22:06:09.220Z,21.11
2018-08-16T22:08:50.428Z,21.01
2018-08-16T22:11:21.146Z,20.99
2018-08-16T22:13:51.955Z,20.95
2018-08-16T22:16:22.744Z,20.96
2018-08-16T22:18:53.551Z,20.96
2018-08-16T22:21:24.393Z,20.89
2018-08-16T22:23:55.173Z,20.87
2018-08-16T22:26:25.963Z,20.85
2018-08-16T22:28:56.704Z,20.86
2018-08-16T22:31:27.557Z,20.86
2018-08-16T22:33:58.390Z,20.82
2018-08-16T22:36:29.100Z,20.83
2018-08-16T22:38:59.844Z,20.74
2018-08-16T22:41:30.549Z,20.71
2018-08-16T22:44:01.315Z,20.74
2018-08-16T22:46:32.040Z,20.75
2018-08-16T22:49:02.743Z,20.66
2018-08-16T22:51:33.510Z,20.58
2018-08-16T22:54:04.387Z,20.54
2018-08-16T22:56:35.135Z,20.51
2018-08-16T22:59:06.026Z,20.50
2018-08-16T23:01:36.780Z,20.48
2018-08-16T23:04:07.542Z,20.46
2018-08-16T23:06:38.277Z,20.45
2018-08-16T23:09:09.214Z,20.37
2018-08-16T23:11:39.975Z,20.34
2018-08-16T23:14:10.684Z,20.29
2018-08-16T23:16:41.444Z,20.30
2018-08-16T23:19:12.268Z,20.33
2018-08-16T23:21:42.975Z,20.26
2018-08-16T23:24:13.778Z,20.26
2018-08-16T23:26:44.523Z,20.27
2018-08-16T23:29:15.300Z,20.30
2018-08-16T23:31:45.998Z,20.25
2018-08-16T23:34:16.825Z,20.18
2018-08-16T23:36:47.667Z,20.16
2018-08-16T23:39:18.462Z,20.21
2018-08-16T23:41:49.205Z,20.20
2018-08-16T23:44:20.039Z,20.18
2018-08-16T23:46:50.796Z,20.19
2018-08-16T23:49:21.588Z,20.13
2018-08-16T23:51:52.324Z,20.09
2018-08-16T23:54:23.126Z,20.08
2018-08-16T23:56:53.855Z,20.06
2018-08-16T23:59:24.672Z,20.02
